sensor_id;sensor_type;location;lat;lon;timestamp;P1;durP1;ratioP1;P2;durP2;ratioP2
75691;SDS011;64307;52.508;6.090;2023-02-24T00:02:00;9.43;;;1.33;;
75691;SDS011;64307;52.508;6.090;2023-02-24T00:04:31;5.63;;;1.48;;
75691;SDS011;64307;52.508;6.090;2023-02-24T00:06:58;9.93;;;1.25;;
75691;SDS011;64307;52.508;6.090;2023-02-24T00:09:24;10.10;;;1.60;;
75691;SDS011;64307;52.508;6.090;2023-02-24T00:12:01;4.75;;;0.95;;
75691;SDS011;64307;52.508;6.090;2023-02-24T00:14:30;11.10;;;1.17;;
75691;SDS011;64307;52.508;6.090;2023-02-24T00:16:57;4.47;;;1.35;;
75691;SDS011;64307;52.508;6.090;2023-02-24T00:19:24;6.40;;;1.20;;
75691;SDS011;64307;52.508;6.090;2023-02-24T00:21:51;5.15;;;0.70;;
75691;SDS011;64307;52.508;6.090;2023-02-24T00:24:18;7.65;;;1.15;;
75691;SDS011;64307;52.508;6.090;2023-02-24T00:26:44;7.28;;;1.70;;
75691;SDS011;64307;52.508;6.090;2023-02-24T00:29:10;10.52;;;1.38;;
75691;SDS011;64307;52.508;6.090;2023-02-24T00:31:37;6.20;;;1.27;;
75691;SDS011;64307;52.508;6.090;2023-02-24T00:34:06;8.48;;;1.13;;
75691;SDS011;64307;52.508;6.090;2023-02-24T00:38:59;8.87;;;1.13;;
75691;SDS011;64307;52.508;6.090;2023-02-24T00:41:33;7.63;;;1.45;;
75691;SDS011;64307;52.508;6.090;2023-02-24T00:44:02;7.05;;;1.58;;
75691;SDS011;64307;52.508;6.090;2023-02-24T00:46:33;5.15;;;1.17;;
75691;SDS011;64307;52.508;6.090;2023-02-24T00:49:01;7.97;;;1.83;;
75691;SDS011;64307;52.508;6.090;2023-02-24T00:51:29;5.50;;;0.77;;
75691;SDS011;64307;52.508;6.090;2023-02-24T00:53:58;6.55;;;1.02;;
75691;SDS011;64307;52.508;6.090;2023-02-24T00:56:24;7.35;;;1.17;;
75691;SDS011;64307;52.508;6.090;2023-02-24T00:58:54;8.90;;;1.55;;
75691;SDS011;64307;52.508;6.090;2023-02-24T01:01:23;6.65;;;1.13;;
75691;SDS011;64307;52.508;6.090;2023-02-24T01:03:53;5.15;;;1.25;;
75691;SDS011;64307;52.508;6.090;2023-02-24T01:06:20;5.88;;;1.02;;
75691;SDS011;64307;52.508;6.090;2023-02-24T01:08:48;6.15;;;1.10;;
75691;SDS011;64307;52.508;6.090;2023-02-24T01:11:15;6.90;;;1.50;;
75691;SDS011;64307;52.508;6.090;2023-02-24T01:14:08;11.35;;;1.27;;
75691;SDS011;64307;52.508;6.090;2023-02-24T01:16:39;4.97;;;0.95;;
75691;SDS011;64307;52.508;6.090;2023-02-24T01:19:06;4.78;;;1.10;;
75691;SDS011;64307;52.508;6.090;2023-02-24T01:23:57;4.63;;;0.98;;
75691;SDS011;64307;52.508;6.090;2023-02-24T01:26:23;5.10;;;1.25;;
75691;SDS011;64307;52.508;6.090;2023-02-24T01:28:50;5.65;;;0.77;;
75691;SDS011;64307;52.508;6.090;2023-02-24T01:31:16;5.45;;;1.20;;
75691;SDS011;64307;52.508;6.090;2023-02-24T01:33:47;5.28;;;0.80;;
75691;SDS011;64307;52.508;6.090;2023-02-24T01:38:41;3.42;;;0.77;;
75691;SDS011;64307;52.508;6.090;2023-02-24T01:41:08;3.47;;;1.08;;
75691;SDS011;64307;52.508;6.090;2023-02-24T01:43:57;6.05;;;1.13;;
75691;SDS011;64307;52.508;6.090;2023-02-24T01:46:26;8.13;;;1.20;;
75691;SDS011;64307;52.508;6.090;2023-02-24T01:48:53;5.55;;;1.08;;
75691;SDS011;64307;52.508;6.090;2023-02-24T01:51:23;4.95;;;1.38;;
75691;SDS011;64307;52.508;6.090;2023-02-24T01:53:52;6.30;;;1.20;;
75691;SDS011;64307;52.508;6.090;2023-02-24T01:56:18;8.65;;;1.23;;
75691;SDS011;64307;52.508;6.090;2023-02-24T01:58:44;7.70;;;1.17;;
75691;SDS011;64307;52.508;6.090;2023-02-24T02:01:09;4.20;;;1.20;;
75691;SDS011;64307;52.508;6.090;2023-02-24T02:03:35;5.10;;;0.82;;
75691;SDS011;64307;52.508;6.090;2023-02-24T02:06:06;7.63;;;1.15;;
75691;SDS011;64307;52.508;6.090;2023-02-24T02:08:34;7.72;;;0.88;;
75691;SDS011;64307;52.508;6.090;2023-02-24T02:11:04;5.03;;;0.90;;
75691;SDS011;64307;52.508;6.090;2023-02-24T02:13:31;8.27;;;1.58;;
75691;SDS011;64307;52.508;6.090;2023-02-24T02:27:14;6.18;;;2.03;;
75691;SDS011;64307;52.508;6.090;2023-02-24T02:32:48;7.82;;;1.33;;
75691;SDS011;64307;52.508;6.090;2023-02-24T02:38:17;5.00;;;0.93;;
75691;SDS011;64307;52.508;6.090;2023-02-24T02:40:54;7.07;;;0.90;;
75691;SDS011;64307;52.508;6.090;2023-02-24T02:46:13;6.35;;;1.60;;
75691;SDS011;64307;52.508;6.090;2023-02-24T02:48:44;5.88;;;0.88;;
75691;SDS011;64307;52.508;6.090;2023-02-24T02:51:17;5.82;;;1.10;;
75691;SDS011;64307;52.508;6.090;2023-02-24T02:54:01;4.60;;;0.93;;
75691;SDS011;64307;52.508;6.090;2023-02-24T02:56:38;6.07;;;1.27;;
75691;SDS011;64307;52.508;6.090;2023-02-24T02:59:07;5.80;;;1.02;;
75691;SDS011;64307;52.508;6.090;2023-02-24T03:01:36;7.53;;;0.68;;
75691;SDS011;64307;52.508;6.090;2023-02-24T03:04:07;8.32;;;0.90;;
75691;SDS011;64307;52.508;6.090;2023-02-24T03:06:36;5.35;;;1.20;;
75691;SDS011;64307;52.508;6.090;2023-02-24T03:09:15;5.80;;;1.20;;
75691;SDS011;64307;52.508;6.090;2023-02-24T03:11:48;5.88;;;0.90;;
75691;SDS011;64307;52.508;6.090;2023-02-24T03:14:19;5.13;;;1.20;;
75691;SDS011;64307;52.508;6.090;2023-02-24T03:16:48;5.05;;;0.90;;
75691;SDS011;64307;52.508;6.090;2023-02-24T03:19:17;7.28;;;0.80;;
75691;SDS011;64307;52.508;6.090;2023-02-24T03:21:56;5.82;;;0.63;;
75691;SDS011;64307;52.508;6.090;2023-02-24T03:24:28;4.38;;;0.85;;
75691;SDS011;64307;52.508;6.090;2023-02-24T03:27:03;6.25;;;1.20;;
75691;SDS011;64307;52.508;6.090;2023-02-24T03:29:37;7.15;;;1.23;;
75691;SDS011;64307;52.508;6.090;2023-02-24T03:32:06;6.95;;;1.00;;
75691;SDS011;64307;52.508;6.090;2023-02-24T03:37:28;9.05;;;0.95;;
75691;SDS011;64307;52.508;6.090;2023-02-24T03:39:56;7.75;;;2.15;;
75691;SDS011;64307;52.508;6.090;2023-02-24T03:42:24;5.00;;;1.35;;
75691;SDS011;64307;52.508;6.090;2023-02-24T03:44:54;6.63;;;0.70;;
75691;SDS011;64307;52.508;6.090;2023-02-24T03:47:22;8.48;;;1.42;;
75691;SDS011;64307;52.508;6.090;2023-02-24T03:49:48;4.18;;;0.93;;
75691;SDS011;64307;52.508;6.090;2023-02-24T03:55:15;4.55;;;1.17;;
75691;SDS011;64307;52.508;6.090;2023-02-24T03:57:56;8.23;;;1.05;;
75691;SDS011;64307;52.508;6.090;2023-02-24T04:00:37;5.55;;;1.02;;
75691;SDS011;64307;52.508;6.090;2023-02-24T04:05:45;6.28;;;1.35;;
75691;SDS011;64307;52.508;6.090;2023-02-24T04:08:21;5.93;;;1.60;;
75691;SDS011;64307;52.508;6.090;2023-02-24T04:10:52;4.25;;;1.10;;
75691;SDS011;64307;52.508;6.090;2023-02-24T04:16:21;4.53;;;0.93;;
75691;SDS011;64307;52.508;6.090;2023-02-24T04:19:01;6.15;;;1.00;;
75691;SDS011;64307;52.508;6.090;2023-02-24T04:21:31;6.32;;;1.15;;
75691;SDS011;64307;52.508;6.090;2023-02-24T04:23:58;2.53;;;0.70;;
75691;SDS011;64307;52.508;6.090;2023-02-24T04:26:30;5.78;;;0.98;;
75691;SDS011;64307;52.508;6.090;2023-02-24T04:28:56;5.97;;;1.27;;
75691;SDS011;64307;52.508;6.090;2023-02-24T04:31:22;11.27;;;1.05;;
75691;SDS011;64307;52.508;6.090;2023-02-24T04:33:50;5.10;;;1.20;;
75691;SDS011;64307;52.508;6.090;2023-02-24T04:36:17;8.13;;;0.68;;
75691;SDS011;64307;52.508;6.090;2023-02-24T04:38:44;8.07;;;1.15;;
75691;SDS011;64307;52.508;6.090;2023-02-24T04:41:10;6.50;;;1.00;;
75691;SDS011;64307;52.508;6.090;2023-02-24T04:43:36;4.60;;;1.13;;
75691;SDS011;64307;52.508;6.090;2023-02-24T04:46:02;5.43;;;0.90;;
75691;SDS011;64307;52.508;6.090;2023-02-24T04:48:32;7.10;;;1.48;;
75691;SDS011;64307;52.508;6.090;2023-02-24T04:53:26;4.15;;;1.35;;
75691;SDS011;64307;52.508;6.090;2023-02-24T04:55:52;8.18;;;1.15;;
75691;SDS011;64307;52.508;6.090;2023-02-24T04:58:20;10.13;;;1.40;;
75691;SDS011;64307;52.508;6.090;2023-02-24T05:00:47;5.22;;;1.60;;
75691;SDS011;64307;52.508;6.090;2023-02-24T05:03:16;5.60;;;1.17;;
75691;SDS011;64307;52.508;6.090;2023-02-24T05:05:51;6.68;;;1.33;;
75691;SDS011;64307;52.508;6.090;2023-02-24T05:08:22;7.30;;;1.63;;
75691;SDS011;64307;52.508;6.090;2023-02-24T05:13:18;7.45;;;1.48;;
75691;SDS011;64307;52.508;6.090;2023-02-24T05:15:45;7.85;;;1.20;;
75691;SDS011;64307;52.508;6.090;2023-02-24T05:18:13;9.73;;;1.42;;
75691;SDS011;64307;52.508;6.090;2023-02-24T05:20:42;5.78;;;1.38;;
75691;SDS011;64307;52.508;6.090;2023-02-24T05:23:28;6.88;;;1.23;;
75691;SDS011;64307;52.508;6.090;2023-02-24T05:25:58;8.70;;;1.25;;
75691;SDS011;64307;52.508;6.090;2023-02-24T05:28:24;6.88;;;1.17;;
75691;SDS011;64307;52.508;6.090;2023-02-24T05:30:50;4.95;;;1.17;;
75691;SDS011;64307;52.508;6.090;2023-02-24T05:33:16;8.52;;;2.00;;
75691;SDS011;64307;52.508;6.090;2023-02-24T05:35:48;5.72;;;1.45;;
75691;SDS011;64307;52.508;6.090;2023-02-24T05:38:15;6.50;;;1.20;;
75691;SDS011;64307;52.508;6.090;2023-02-24T05:40:43;5.35;;;1.02;;
75691;SDS011;64307;52.508;6.090;2023-02-24T05:43:12;4.55;;;1.00;;
75691;SDS011;64307;52.508;6.090;2023-02-24T05:45:46;9.70;;;1.50;;
75691;SDS011;64307;52.508;6.090;2023-02-24T05:48:12;6.40;;;1.15;;
75691;SDS011;64307;52.508;6.090;2023-02-24T05:50:39;7.50;;;0.98;;
75691;SDS011;64307;52.508;6.090;2023-02-24T05:53:05;4.18;;;0.90;;
75691;SDS011;64307;52.508;6.090;2023-02-24T05:55:33;7.45;;;1.23;;
75691;SDS011;64307;52.508;6.090;2023-02-24T05:58:00;4.43;;;1.20;;
75691;SDS011;64307;52.508;6.090;2023-02-24T06:00:30;6.70;;;1.27;;
75691;SDS011;64307;52.508;6.090;2023-02-24T06:02:55;7.63;;;1.10;;
75691;SDS011;64307;52.508;6.090;2023-02-24T06:05:32;6.53;;;0.90;;
75691;SDS011;64307;52.508;6.090;2023-02-24T06:07:58;6.82;;;1.38;;
75691;SDS011;64307;52.508;6.090;2023-02-24T06:10:33;8.13;;;1.10;;
75691;SDS011;64307;52.508;6.090;2023-02-24T06:13:00;8.73;;;1.30;;
75691;SDS011;64307;52.508;6.090;2023-02-24T06:15:26;5.47;;;1.35;;
75691;SDS011;64307;52.508;6.090;2023-02-24T06:17:52;9.27;;;1.00;;
75691;SDS011;64307;52.508;6.090;2023-02-24T06:20:20;4.32;;;1.02;;
75691;SDS011;64307;52.508;6.090;2023-02-24T06:22:47;8.05;;;1.33;;
75691;SDS011;64307;52.508;6.090;2023-02-24T06:25:12;10.55;;;1.10;;
75691;SDS011;64307;52.508;6.090;2023-02-24T06:27:38;5.50;;;1.00;;
75691;SDS011;64307;52.508;6.090;2023-02-24T06:30:03;9.70;;;1.00;;
75691;SDS011;64307;52.508;6.090;2023-02-24T06:32:34;3.25;;;0.88;;
75691;SDS011;64307;52.508;6.090;2023-02-24T06:35:00;5.10;;;0.98;;
75691;SDS011;64307;52.508;6.090;2023-02-24T06:37:25;6.55;;;0.90;;
75691;SDS011;64307;52.508;6.090;2023-02-24T06:39:51;5.22;;;0.80;;
75691;SDS011;64307;52.508;6.090;2023-02-24T06:42:16;6.70;;;1.10;;
75691;SDS011;64307;52.508;6.090;2023-02-24T06:44:42;6.35;;;1.75;;
75691;SDS011;64307;52.508;6.090;2023-02-24T06:47:09;6.28;;;0.98;;
75691;SDS011;64307;52.508;6.090;2023-02-24T06:49:36;4.28;;;1.13;;
75691;SDS011;64307;52.508;6.090;2023-02-24T06:52:02;7.07;;;1.27;;
75691;SDS011;64307;52.508;6.090;2023-02-24T06:54:27;9.30;;;1.10;;
75691;SDS011;64307;52.508;6.090;2023-02-24T06:56:54;6.90;;;0.95;;
75691;SDS011;64307;52.508;6.090;2023-02-24T06:59:21;9.57;;;0.93;;
75691;SDS011;64307;52.508;6.090;2023-02-24T07:01:47;8.20;;;0.98;;
75691;SDS011;64307;52.508;6.090;2023-02-24T07:04:14;6.30;;;1.38;;
75691;SDS011;64307;52.508;6.090;2023-02-24T07:06:41;6.25;;;1.30;;
75691;SDS011;64307;52.508;6.090;2023-02-24T07:09:16;11.02;;;1.08;;
75691;SDS011;64307;52.508;6.090;2023-02-24T07:11:44;8.93;;;1.33;;
75691;SDS011;64307;52.508;6.090;2023-02-24T07:14:12;7.47;;;1.02;;
75691;SDS011;64307;52.508;6.090;2023-02-24T07:16:38;7.47;;;1.52;;
75691;SDS011;64307;52.508;6.090;2023-02-24T07:19:13;14.20;;;1.60;;
75691;SDS011;64307;52.508;6.090;2023-02-24T07:21:43;7.95;;;1.30;;
75691;SDS011;64307;52.508;6.090;2023-02-24T07:24:14;4.78;;;1.20;;
75691;SDS011;64307;52.508;6.090;2023-02-24T07:26:53;7.03;;;1.60;;
75691;SDS011;64307;52.508;6.090;2023-02-24T07:29:20;6.70;;;0.85;;
75691;SDS011;64307;52.508;6.090;2023-02-24T07:31:47;7.43;;;1.58;;
75691;SDS011;64307;52.508;6.090;2023-02-24T07:34:12;7.22;;;1.10;;
75691;SDS011;64307;52.508;6.090;2023-02-24T07:36:38;8.57;;;2.00;;
75691;SDS011;64307;52.508;6.090;2023-02-24T07:39:13;7.70;;;1.30;;
75691;SDS011;64307;52.508;6.090;2023-02-24T07:41:39;5.07;;;0.80;;
75691;SDS011;64307;52.508;6.090;2023-02-24T07:44:10;5.20;;;1.25;;
75691;SDS011;64307;52.508;6.090;2023-02-24T07:46:38;9.10;;;2.55;;
75691;SDS011;64307;52.508;6.090;2023-02-24T07:49:04;5.60;;;1.33;;
75691;SDS011;64307;52.508;6.090;2023-02-24T07:51:33;23.52;;;2.05;;
75691;SDS011;64307;52.508;6.090;2023-02-24T07:53:59;9.20;;;2.33;;
75691;SDS011;64307;52.508;6.090;2023-02-24T07:56:27;7.53;;;1.42;;
75691;SDS011;64307;52.508;6.090;2023-02-24T07:59:04;7.10;;;1.80;;
75691;SDS011;64307;52.508;6.090;2023-02-24T08:01:33;10.60;;;1.50;;
75691;SDS011;64307;52.508;6.090;2023-02-24T08:04:04;9.45;;;1.90;;
75691;SDS011;64307;52.508;6.090;2023-02-24T08:06:37;7.57;;;1.58;;
75691;SDS011;64307;52.508;6.090;2023-02-24T08:09:08;9.98;;;1.65;;
75691;SDS011;64307;52.508;6.090;2023-02-24T08:11:51;10.38;;;2.28;;
75691;SDS011;64307;52.508;6.090;2023-02-24T08:14:22;14.07;;;1.75;;
75691;SDS011;64307;52.508;6.090;2023-02-24T08:16:51;7.55;;;1.85;;
75691;SDS011;64307;52.508;6.090;2023-02-24T08:19:23;11.38;;;2.05;;
75691;SDS011;64307;52.508;6.090;2023-02-24T08:21:57;12.68;;;1.92;;
75691;SDS011;64307;52.508;6.090;2023-02-24T08:24:43;9.30;;;1.73;;
75691;SDS011;64307;52.508;6.090;2023-02-24T08:27:14;9.05;;;1.77;;
75691;SDS011;64307;52.508;6.090;2023-02-24T08:29:44;9.80;;;1.90;;
75691;SDS011;64307;52.508;6.090;2023-02-24T08:32:30;10.43;;;1.63;;
75691;SDS011;64307;52.508;6.090;2023-02-24T08:35:01;13.88;;;2.10;;
75691;SDS011;64307;52.508;6.090;2023-02-24T08:37:29;10.18;;;1.85;;
75691;SDS011;64307;52.508;6.090;2023-02-24T08:40:03;16.27;;;1.80;;
75691;SDS011;64307;52.508;6.090;2023-02-24T08:43:08;9.88;;;2.28;;
75691;SDS011;64307;52.508;6.090;2023-02-24T08:45:44;8.63;;;1.85;;
75691;SDS011;64307;52.508;6.090;2023-02-24T08:48:14;8.30;;;2.10;;
75691;SDS011;64307;52.508;6.090;2023-02-24T08:51:09;13.18;;;1.83;;
75691;SDS011;64307;52.508;6.090;2023-02-24T08:53:46;11.00;;;1.90;;
75691;SDS011;64307;52.508;6.090;2023-02-24T08:56:13;13.80;;;1.63;;
75691;SDS011;64307;52.508;6.090;2023-02-24T08:58:47;15.30;;;1.70;;
75691;SDS011;64307;52.508;6.090;2023-02-24T09:01:19;10.52;;;1.88;;
75691;SDS011;64307;52.508;6.090;2023-02-24T09:03:50;11.57;;;2.25;;
75691;SDS011;64307;52.508;6.090;2023-02-24T09:06:23;7.45;;;1.92;;
75691;SDS011;64307;52.508;6.090;2023-02-24T09:09:09;8.07;;;1.98;;
75691;SDS011;64307;52.508;6.090;2023-02-24T09:11:52;11.95;;;1.77;;
75691;SDS011;64307;52.508;6.090;2023-02-24T09:14:26;8.90;;;2.38;;
75691;SDS011;64307;52.508;6.090;2023-02-24T09:16:53;9.57;;;2.28;;
75691;SDS011;64307;52.508;6.090;2023-02-24T09:22:10;9.93;;;2.25;;
75691;SDS011;64307;52.508;6.090;2023-02-24T09:24:54;13.63;;;2.25;;
75691;SDS011;64307;52.508;6.090;2023-02-24T09:27:42;7.10;;;2.13;;
75691;SDS011;64307;52.508;6.090;2023-02-24T09:30:16;10.63;;;2.10;;
75691;SDS011;64307;52.508;6.090;2023-02-24T09:33:15;10.75;;;2.08;;
75691;SDS011;64307;52.508;6.090;2023-02-24T09:35:45;14.75;;;2.33;;
75691;SDS011;64307;52.508;6.090;2023-02-24T09:40:40;8.98;;;2.88;;
75691;SDS011;64307;52.508;6.090;2023-02-24T09:46:05;8.70;;;2.35;;
75691;SDS011;64307;52.508;6.090;2023-02-24T09:51:15;7.70;;;2.08;;
75691;SDS011;64307;52.508;6.090;2023-02-24T09:53:53;11.10;;;2.10;;
75691;SDS011;64307;52.508;6.090;2023-02-24T09:56:37;9.73;;;2.75;;
75691;SDS011;64307;52.508;6.090;2023-02-24T09:59:15;9.25;;;2.15;;
75691;SDS011;64307;52.508;6.090;2023-02-24T10:01:55;8.63;;;2.42;;
75691;SDS011;64307;52.508;6.090;2023-02-24T10:04:32;9.70;;;2.25;;
75691;SDS011;64307;52.508;6.090;2023-02-24T10:07:14;10.70;;;2.45;;
75691;SDS011;64307;52.508;6.090;2023-02-24T10:10:18;9.93;;;2.72;;
75691;SDS011;64307;52.508;6.090;2023-02-24T10:12:55;11.65;;;2.35;;
75691;SDS011;64307;52.508;6.090;2023-02-24T10:15:27;9.18;;;2.38;;
75691;SDS011;64307;52.508;6.090;2023-02-24T10:18:29;8.23;;;2.42;;
75691;SDS011;64307;52.508;6.090;2023-02-24T10:21:22;7.30;;;2.40;;
75691;SDS011;64307;52.508;6.090;2023-02-24T10:26:46;8.90;;;2.15;;
75691;SDS011;64307;52.508;6.090;2023-02-24T10:29:26;7.20;;;2.30;;
75691;SDS011;64307;52.508;6.090;2023-02-24T10:31:57;5.95;;;2.80;;
75691;SDS011;64307;52.508;6.090;2023-02-24T10:34:25;8.00;;;2.78;;
75691;SDS011;64307;52.508;6.090;2023-02-24T10:36:56;7.28;;;2.33;;
75691;SDS011;64307;52.508;6.090;2023-02-24T10:39:43;7.03;;;2.78;;
75691;SDS011;64307;52.508;6.090;2023-02-24T10:42:21;11.70;;;3.22;;
75691;SDS011;64307;52.508;6.090;2023-02-24T10:44:48;7.97;;;2.78;;
75691;SDS011;64307;52.508;6.090;2023-02-24T10:47:19;8.20;;;4.00;;
75691;SDS011;64307;52.508;6.090;2023-02-24T10:49:55;9.55;;;2.83;;
75691;SDS011;64307;52.508;6.090;2023-02-24T10:58:27;7.20;;;2.88;;
75691;SDS011;64307;52.508;6.090;2023-02-24T11:01:10;6.50;;;2.92;;
75691;SDS011;64307;52.508;6.090;2023-02-24T11:03:38;6.82;;;2.83;;
75691;SDS011;64307;52.508;6.090;2023-02-24T11:06:20;8.20;;;2.72;;
75691;SDS011;64307;52.508;6.090;2023-02-24T11:11:46;8.52;;;3.63;;
75691;SDS011;64307;52.508;6.090;2023-02-24T11:14:36;9.73;;;2.67;;
75691;SDS011;64307;52.508;6.090;2023-02-24T11:17:34;11.82;;;3.00;;
75691;SDS011;64307;52.508;6.090;2023-02-24T11:22:41;7.38;;;2.88;;
75691;SDS011;64307;52.508;6.090;2023-02-24T11:25:20;8.07;;;3.05;;
75691;SDS011;64307;52.508;6.090;2023-02-24T11:27:49;8.15;;;3.67;;
75691;SDS011;64307;52.508;6.090;2023-02-24T11:30:20;5.35;;;2.60;;
75691;SDS011;64307;52.508;6.090;2023-02-24T11:32:53;9.35;;;2.60;;
75691;SDS011;64307;52.508;6.090;2023-02-24T11:35:32;7.55;;;2.67;;
75691;SDS011;64307;52.508;6.090;2023-02-24T11:38:10;8.93;;;2.92;;
75691;SDS011;64307;52.508;6.090;2023-02-24T11:40:53;8.07;;;2.60;;
75691;SDS011;64307;52.508;6.090;2023-02-24T11:43:27;8.27;;;2.33;;
75691;SDS011;64307;52.508;6.090;2023-02-24T11:46:01;7.97;;;2.47;;
75691;SDS011;64307;52.508;6.090;2023-02-24T11:48:32;10.00;;;2.63;;
75691;SDS011;64307;52.508;6.090;2023-02-24T11:51:12;10.05;;;2.85;;
75691;SDS011;64307;52.508;6.090;2023-02-24T11:56:49;11.15;;;2.13;;
75691;SDS011;64307;52.508;6.090;2023-02-24T11:59:26;23.90;;;2.70;;
75691;SDS011;64307;52.508;6.090;2023-02-24T12:05:02;12.27;;;2.08;;
75691;SDS011;64307;52.508;6.090;2023-02-24T12:07:32;17.50;;;2.60;;
75691;SDS011;64307;52.508;6.090;2023-02-24T12:10:06;14.90;;;1.83;;
75691;SDS011;64307;52.508;6.090;2023-02-24T12:12:43;19.70;;;3.00;;
75691;SDS011;64307;52.508;6.090;2023-02-24T12:20:49;18.00;;;2.42;;
75691;SDS011;64307;52.508;6.090;2023-02-24T12:23:24;18.42;;;2.08;;
75691;SDS011;64307;52.508;6.090;2023-02-24T12:31:37;14.93;;;2.25;;
75691;SDS011;64307;52.508;6.090;2023-02-24T12:40:15;18.50;;;1.85;;
75691;SDS011;64307;52.508;6.090;2023-02-24T12:45:41;16.58;;;2.22;;
75691;SDS011;64307;52.508;6.090;2023-02-24T12:48:24;16.83;;;1.88;;
75691;SDS011;64307;52.508;6.090;2023-02-24T12:53:43;17.13;;;2.33;;
75691;SDS011;64307;52.508;6.090;2023-02-24T12:56:17;21.13;;;3.20;;
75691;SDS011;64307;52.508;6.090;2023-02-24T12:58:49;18.90;;;2.85;;
75691;SDS011;64307;52.508;6.090;2023-02-24T13:01:21;16.60;;;2.28;;
75691;SDS011;64307;52.508;6.090;2023-02-24T13:12:21;10.18;;;1.13;;
75691;SDS011;64307;52.508;6.090;2023-02-24T13:14:51;9.63;;;0.85;;
75691;SDS011;64307;52.508;6.090;2023-02-24T13:17:19;8.43;;;0.65;;
75691;SDS011;64307;52.508;6.090;2023-02-24T13:19:47;8.50;;;1.83;;
75691;SDS011;64307;52.508;6.090;2023-02-24T13:24:40;11.07;;;1.67;;
75691;SDS011;64307;52.508;6.090;2023-02-24T13:27:26;9.35;;;1.35;;
75691;SDS011;64307;52.508;6.090;2023-02-24T13:29:57;9.70;;;1.02;;
75691;SDS011;64307;52.508;6.090;2023-02-24T13:32:32;12.40;;;1.15;;
75691;SDS011;64307;52.508;6.090;2023-02-24T13:35:01;10.80;;;0.98;;
75691;SDS011;64307;52.508;6.090;2023-02-24T13:37:39;13.25;;;1.65;;
75691;SDS011;64307;52.508;6.090;2023-02-24T13:45:22;17.90;;;2.00;;
75691;SDS011;64307;52.508;6.090;2023-02-24T13:51:04;15.90;;;1.38;;
75691;SDS011;64307;52.508;6.090;2023-02-24T13:53:55;20.48;;;2.63;;
75691;SDS011;64307;52.508;6.090;2023-02-24T14:04:43;8.40;;;0.80;;
75691;SDS011;64307;52.508;6.090;2023-02-24T14:07:15;5.35;;;0.90;;
75691;SDS011;64307;52.508;6.090;2023-02-24T14:09:47;8.00;;;1.10;;
75691;SDS011;64307;52.508;6.090;2023-02-24T14:12:49;7.45;;;1.23;;
75691;SDS011;64307;52.508;6.090;2023-02-24T14:15:24;4.68;;;0.88;;
75691;SDS011;64307;52.508;6.090;2023-02-24T14:17:55;6.47;;;0.73;;
75691;SDS011;64307;52.508;6.090;2023-02-24T14:22:51;4.70;;;0.70;;
75691;SDS011;64307;52.508;6.090;2023-02-24T14:25:19;5.43;;;0.40;;
75691;SDS011;64307;52.508;6.090;2023-02-24T14:27:47;5.85;;;0.32;;
75691;SDS011;64307;52.508;6.090;2023-02-24T14:30:26;6.40;;;0.70;;
75691;SDS011;64307;52.508;6.090;2023-02-24T14:33:03;3.47;;;0.35;;
75691;SDS011;64307;52.508;6.090;2023-02-24T14:38:58;7.18;;;0.70;;
75691;SDS011;64307;52.508;6.090;2023-02-24T14:41:03;7.22;;;0.88;;
75691;SDS011;64307;52.508;6.090;2023-02-24T14:43:30;5.47;;;0.70;;
75691;SDS011;64307;52.508;6.090;2023-02-24T14:45:56;4.43;;;0.85;;
75691;SDS011;64307;52.508;6.090;2023-02-24T14:48:26;4.32;;;0.50;;
75691;SDS011;64307;52.508;6.090;2023-02-24T14:50:54;7.43;;;0.70;;
75691;SDS011;64307;52.508;6.090;2023-02-24T14:53:23;6.38;;;0.63;;
75691;SDS011;64307;52.508;6.090;2023-02-24T14:55:54;6.30;;;0.43;;
75691;SDS011;64307;52.508;6.090;2023-02-24T15:01:02;5.25;;;0.68;;
75691;SDS011;64307;52.508;6.090;2023-02-24T15:03:57;6.00;;;0.40;;
75691;SDS011;64307;52.508;6.090;2023-02-24T15:06:28;4.63;;;0.40;;
75691;SDS011;64307;52.508;6.090;2023-02-24T15:08:57;6.78;;;0.57;;
75691;SDS011;64307;52.508;6.090;2023-02-24T15:11:27;2.25;;;0.20;;
75691;SDS011;64307;52.508;6.090;2023-02-24T15:13:54;2.58;;;0.20;;
75691;SDS011;64307;52.508;6.090;2023-02-24T15:16:42;2.28;;;0.40;;
75691;SDS011;64307;52.508;6.090;2023-02-24T15:22:47;7.40;;;0.65;;
75691;SDS011;64307;52.508;6.090;2023-02-24T15:25:08;4.13;;;0.57;;
75691;SDS011;64307;52.508;6.090;2023-02-24T15:27:56;6.43;;;0.80;;
75691;SDS011;64307;52.508;6.090;2023-02-24T15:35:30;3.97;;;0.73;;
75691;SDS011;64307;52.508;6.090;2023-02-24T15:37:59;6.70;;;0.70;;
75691;SDS011;64307;52.508;6.090;2023-02-24T15:40:26;7.07;;;1.00;;
75691;SDS011;64307;52.508;6.090;2023-02-24T15:42:54;6.03;;;0.40;;
75691;SDS011;64307;52.508;6.090;2023-02-24T15:45:31;6.18;;;0.88;;
75691;SDS011;64307;52.508;6.090;2023-02-24T15:48:01;10.15;;;1.35;;
75691;SDS011;64307;52.508;6.090;2023-02-24T15:50:41;8.13;;;1.05;;
75691;SDS011;64307;52.508;6.090;2023-02-24T15:53:08;4.57;;;0.60;;
75691;SDS011;64307;52.508;6.090;2023-02-24T15:55:36;5.53;;;0.95;;
75691;SDS011;64307;52.508;6.090;2023-02-24T15:58:04;3.72;;;0.52;;
75691;SDS011;64307;52.508;6.090;2023-02-24T16:00:30;6.53;;;0.68;;
75691;SDS011;64307;52.508;6.090;2023-02-24T16:02:56;6.38;;;0.80;;
75691;SDS011;64307;52.508;6.090;2023-02-24T16:05:22;5.55;;;0.75;;
75691;SDS011;64307;52.508;6.090;2023-02-24T16:07:48;4.88;;;0.47;;
75691;SDS011;64307;52.508;6.090;2023-02-24T16:10:15;3.78;;;0.75;;
75691;SDS011;64307;52.508;6.090;2023-02-24T16:12:47;6.10;;;0.82;;
75691;SDS011;64307;52.508;6.090;2023-02-24T16:15:19;5.50;;;0.45;;
75691;SDS011;64307;52.508;6.090;2023-02-24T16:17:47;10.35;;;0.98;;
75691;SDS011;64307;52.508;6.090;2023-02-24T16:20:24;3.92;;;0.73;;
75691;SDS011;64307;52.508;6.090;2023-02-24T16:22:54;7.78;;;0.63;;
75691;SDS011;64307;52.508;6.090;2023-02-24T16:25:21;6.78;;;0.82;;
75691;SDS011;64307;52.508;6.090;2023-02-24T16:27:47;10.80;;;0.98;;
75691;SDS011;64307;52.508;6.090;2023-02-24T16:30:14;10.38;;;1.38;;
75691;SDS011;64307;52.508;6.090;2023-02-24T16:32:41;9.35;;;1.08;;
75691;SDS011;64307;52.508;6.090;2023-02-24T16:35:07;10.63;;;1.20;;
75691;SDS011;64307;52.508;6.090;2023-02-24T16:37:35;9.07;;;1.15;;
75691;SDS011;64307;52.508;6.090;2023-02-24T16:40:00;8.40;;;1.02;;
75691;SDS011;64307;52.508;6.090;2023-02-24T16:42:26;9.48;;;1.23;;
75691;SDS011;64307;52.508;6.090;2023-02-24T16:44:51;8.82;;;0.90;;
75691;SDS011;64307;52.508;6.090;2023-02-24T16:47:18;6.05;;;1.30;;
75691;SDS011;64307;52.508;6.090;2023-02-24T16:49:46;13.18;;;1.30;;
75691;SDS011;64307;52.508;6.090;2023-02-24T16:52:11;9.07;;;1.98;;
75691;SDS011;64307;52.508;6.090;2023-02-24T16:54:37;13.30;;;1.52;;
75691;SDS011;64307;52.508;6.090;2023-02-24T16:57:02;10.82;;;1.95;;
75691;SDS011;64307;52.508;6.090;2023-02-24T16:59:27;7.00;;;1.08;;
75691;SDS011;64307;52.508;6.090;2023-02-24T17:01:53;10.82;;;1.70;;
75691;SDS011;64307;52.508;6.090;2023-02-24T17:04:19;9.40;;;1.25;;
75691;SDS011;64307;52.508;6.090;2023-02-24T17:06:45;12.57;;;1.60;;
75691;SDS011;64307;52.508;6.090;2023-02-24T17:09:11;11.98;;;1.13;;
75691;SDS011;64307;52.508;6.090;2023-02-24T17:11:39;9.02;;;1.00;;
75691;SDS011;64307;52.508;6.090;2023-02-24T17:14:06;6.03;;;1.13;;
75691;SDS011;64307;52.508;6.090;2023-02-24T17:16:38;6.85;;;1.35;;
75691;SDS011;64307;52.508;6.090;2023-02-24T17:19:05;11.23;;;1.10;;
75691;SDS011;64307;52.508;6.090;2023-02-24T17:21:31;11.85;;;1.42;;
75691;SDS011;64307;52.508;6.090;2023-02-24T17:23:56;11.63;;;1.52;;
75691;SDS011;64307;52.508;6.090;2023-02-24T17:26:21;13.52;;;1.08;;
75691;SDS011;64307;52.508;6.090;2023-02-24T17:28:47;10.50;;;1.27;;
75691;SDS011;64307;52.508;6.090;2023-02-24T17:31:12;16.75;;;1.08;;
75691;SDS011;64307;52.508;6.090;2023-02-24T17:33:37;7.63;;;0.90;;